CheckWX is a tool to help pilots better visualize weather data.  It is not intended as a substitute for an official pre-flight weather briefing.

04:14:08 UTC

KCHA METAR
Lovell Field Airport
Chattanooga, Tennessee, USA
Current

21 mins ago

KCHA 070353Z 00000KT 10SM SCT050 OVC085 10/07 A3022 RMK AO2 SLP233 T01000072
Observed
Dec-7 @ 03:53 UTC
Visibility
10 SM
Flight Rules
VFR
Cloud Levels
  • Scattered at 5,000' AGL
  • Overcast at 8,500' AGL
Temperature
10°C / 50°F
Dewpoint
C / 45°F
Humidity
82%
Altimeter
30.22" Hg
Pressure
1023.42 hPa
Previous

1 hour ago

KCHA 070253Z 00000KT 10SM SCT049 BKN065 OVC090 11/07 A3021 RMK AO2 SLP230 T01060072 51011
Observed
Dec-7 @ 02:53 UTC
Visibility
10 SM
Flight Rules
VFR
Cloud Levels
  • Scattered at 4,900' AGL
  • Broken at 6,500' AGL
  • Overcast at 9,000' AGL
Temperature
11°C / 52°F
Dewpoint
C / 45°F
Humidity
77%
Altimeter
30.21" Hg
Pressure
1023.02 hPa
Previous

2 hours ago

KCHA 070153Z 33004KT 10SM OVC045 11/07 A3021 RMK AO2 SLP230 T01060072
Observed
Dec-7 @ 01:53 UTC
Wind
  • 330° at 4 KTS
Visibility
10 SM
Flight Rules
VFR
Cloud Levels
  • Overcast at 4,500' AGL
Temperature
11°C / 52°F
Dewpoint
C / 45°F
Humidity
77%
Altimeter
30.21" Hg
Pressure
1023.02 hPa